createdAt,value
2022-09-01T00:00:01.811Z,984.7
2022-09-01T00:05:00.172Z,984.9
2022-09-01T00:10:00.278Z,985.1
2022-09-01T00:15:00.177Z,984.9
2022-09-01T00:20:00.175Z,984.9
2022-09-01T00:25:00.173Z,985.1
2022-09-01T00:30:00.361Z,985.1
2022-09-01T00:35:00.161Z,985.4
2022-09-01T00:40:00.174Z,985.4
2022-09-01T00:45:00.187Z,985.6
2022-09-01T00:50:00.194Z,985.6
2022-09-01T00:55:00.200Z,985.6
2022-09-01T01:00:00.210Z,985.6
2022-09-01T01:05:00.157Z,985.4
2022-09-01T01:10:00.197Z,985.6
2022-09-01T01:15:00.169Z,985.6
2022-09-01T01:20:00.162Z,985.8
2022-09-01T01:25:00.179Z,986
2022-09-01T01:30:00.159Z,986.2
2022-09-01T01:35:00.175Z,985.8
2022-09-01T01:40:00.201Z,985.8
2022-09-01T01:45:00.160Z,986
2022-09-01T01:50:00.167Z,985.8
2022-09-01T01:55:05.005Z,985.4
2022-09-01T02:00:00.195Z,985.4
2022-09-01T02:05:00.530Z,984.9
2022-09-01T02:10:00.209Z,985.1
2022-09-01T02:15:00.167Z,984.9
2022-09-01T02:20:00.181Z,984.9
2022-09-01T02:25:00.279Z,984.9
2022-09-01T02:30:00.181Z,984.9
2022-09-01T02:35:00.196Z,984.9
2022-09-01T02:40:00.199Z,984.9
2022-09-01T02:45:00.268Z,984.5
2022-09-01T02:50:00.312Z,984
2022-09-01T02:55:00.248Z,984.5
2022-09-01T03:00:00.177Z,984.5
2022-09-01T03:05:00.337Z,984.3
2022-09-01T03:10:00.163Z,984
2022-09-01T03:15:00.161Z,983.8
2022-09-01T03:20:00.189Z,983.8
2022-09-01T03:25:00.174Z,984
2022-09-01T03:30:00.161Z,984
2022-09-01T03:35:00.178Z,984.5
2022-09-01T03:40:00.171Z,984.5
2022-09-01T03:45:00.160Z,984.5
2022-09-01T03:50:00.170Z,984.5
2022-09-01T03:55:00.166Z,984.3
2022-09-01T04:00:00.185Z,984.3
2022-09-01T04:05:00.172Z,983.8
2022-09-01T04:10:00.177Z,984
2022-09-01T04:15:00.162Z,983.6
2022-09-01T04:20:00.180Z,983.6
2022-09-01T04:30:00.192Z,983.4
2022-09-01T04:35:00.183Z,983.4
2022-09-01T04:40:00.166Z,983.2
2022-09-01T04:45:01.995Z,983.2
2022-09-01T04:50:00.190Z,983.2
2022-09-01T04:55:00.176Z,983.2
2022-09-01T05:00:00.159Z,983.2
2022-09-01T05:05:00.176Z,983.4
2022-09-01T05:10:01.466Z,983.4
2022-09-01T05:15:00.173Z,983.4
2022-09-01T05:20:00.214Z,983.4
2022-09-01T05:25:00.163Z,983.2
2022-09-01T05:30:00.213Z,983
2022-09-01T05:35:00.161Z,983.2
2022-09-01T05:40:00.165Z,983
2022-09-01T05:45:00.224Z,983
2022-09-01T05:50:00.171Z,982.7
2022-09-01T05:55:00.250Z,982.7
2022-09-01T06:00:00.180Z,982.3
2022-09-01T06:05:00.171Z,982.7
2022-09-01T06:10:00.186Z,982.7
2022-09-01T06:15:00.196Z,982.7
2022-09-01T06:20:00.173Z,982.5
2022-09-01T06:25:02.805Z,981.9
2022-09-01T06:30:00.188Z,981.4
2022-09-01T06:35:00.167Z,980.6
2022-09-01T06:40:00.197Z,981
2022-09-01T06:45:00.166Z,980.4
2022-09-01T06:50:00.170Z,980.1
2022-09-01T06:55:03.420Z,979.7
2022-09-01T07:00:08.810Z,979.3
2022-09-01T07:05:00.165Z,978.8
2022-09-01T07:10:18.626Z,978.8
2022-09-01T07:20:23.708Z,978.4
2022-09-01T07:25:12.778Z,978
2022-09-01T07:30:00.166Z,977.7
2022-09-01T07:35:00.250Z,976.2
2022-09-01T07:45:25.573Z,976.2
2022-09-01T07:50:37.638Z,975.8
2022-09-01T07:55:00.195Z,975.4
2022-09-01T08:00:00.181Z,974.5
2022-09-01T08:05:00.172Z,974.9
2022-09-01T08:10:01.258Z,974.3
2022-09-01T08:15:41.170Z,973.8
2022-09-01T08:20:00.202Z,974
2022-09-01T08:25:00.163Z,973.2
2022-09-01T08:30:00.170Z,972.5
2022-09-01T08:40:04.061Z,971.9
2022-09-01T08:50:00.225Z,971.2
2022-09-01T08:55:00.216Z,970.6
2022-09-01T09:00:00.224Z,970.6
2022-09-01T09:05:00.156Z,971
2022-09-01T09:10:00.172Z,970.4
2022-09-01T09:15:00.175Z,970.1
2022-09-01T09:20:00.196Z,970.1
2022-09-01T09:35:00.147Z,967.3
2022-09-01T09:40:00.184Z,965.8
2022-09-01T09:45:00.163Z,965.4
2022-09-01T09:50:00.185Z,966.7
2022-09-01T09:55:00.169Z,965.1
2022-09-01T10:00:00.445Z,964.9
2022-09-01T10:05:00.162Z,964.5
2022-09-01T10:10:00.197Z,964.5
2022-09-01T10:15:00.566Z,964
2022-09-01T10:20:00.187Z,964.5
2022-09-01T10:25:00.166Z,964.9
2022-09-01T10:30:18.098Z,964
2022-09-01T10:35:02.046Z,964.7
2022-09-01T10:40:00.144Z,962.1
2022-09-01T10:45:00.168Z,963.6
2022-09-01T10:50:01.229Z,962.7
2022-09-01T10:55:00.172Z,962.1
2022-09-01T11:00:00.603Z,961.9
2022-09-01T11:05:00.613Z,962.3
2022-09-01T11:10:11.618Z,963.2
2022-09-01T11:15:00.162Z,962.1
2022-09-01T11:20:02.557Z,960.6
2022-09-01T11:30:00.163Z,962.1
2022-09-01T11:35:00.966Z,961.4
2022-09-01T11:40:00.178Z,961.7
2022-09-01T11:50:00.486Z,960.6
2022-09-01T11:55:00.168Z,961.9
2022-09-01T12:00:03.405Z,960.8
2022-09-01T12:05:06.138Z,963.2
2022-09-01T12:10:00.988Z,962.3
2022-09-01T12:15:06.027Z,961.4
2022-09-01T12:20:00.152Z,961
2022-09-01T12:25:06.312Z,960.4
2022-09-01T12:30:00.157Z,959.9
2022-09-01T12:35:00.152Z,960.1
2022-09-01T12:40:00.167Z,960.1
2022-09-01T12:45:00.262Z,958.8
2022-09-01T12:50:05.668Z,960.1
2022-09-01T12:55:00.189Z,961.4
2022-09-01T13:00:00.174Z,961.4
2022-09-01T13:05:00.163Z,961.7
2022-09-01T13:10:00.352Z,960.6
2022-09-01T13:15:00.252Z,961.4
2022-09-01T13:20:03.756Z,961.4
2022-09-01T13:25:00.180Z,960.1
2022-09-01T13:30:00.259Z,960.1
2022-09-01T13:35:07.646Z,960.4
2022-09-01T13:40:00.171Z,958.8
2022-09-01T13:45:00.271Z,960.6
2022-09-01T13:50:09.740Z,959
2022-09-01T13:55:00.170Z,957.1
2022-09-01T14:00:00.183Z,958
2022-09-01T14:05:00.163Z,958.4
2022-09-01T14:10:00.204Z,959
2022-09-01T14:15:17.468Z,958.6
2022-09-01T14:20:00.175Z,957.7
2022-09-01T14:25:00.229Z,958.6
2022-09-01T14:30:00.268Z,959.9
2022-09-01T14:35:00.181Z,959.7
2022-09-01T14:40:03.269Z,959.7
2022-09-01T14:45:00.177Z,960.1
2022-09-01T14:50:00.302Z,959
2022-09-01T14:55:00.174Z,960.6
2022-09-01T15:00:00.213Z,961.7
2022-09-01T15:05:00.250Z,961
2022-09-01T15:10:00.176Z,959.7
2022-09-01T15:15:00.173Z,959
2022-09-01T15:20:00.171Z,959.9
2022-09-01T15:25:00.162Z,959.3
2022-09-01T15:30:00.180Z,958.2
2022-09-01T15:35:00.170Z,959.3
2022-09-01T15:40:00.167Z,960.6
2022-09-01T15:45:00.156Z,960.6
2022-09-01T15:50:00.174Z,959.3
2022-09-01T15:55:00.174Z,960.1
2022-09-01T16:00:00.186Z,960.6
2022-09-01T16:05:00.315Z,961
2022-09-01T16:10:00.210Z,960.8
2022-09-01T16:15:00.184Z,961
2022-09-01T16:20:00.200Z,960.1
2022-09-01T16:25:00.168Z,960.1
2022-09-01T16:30:00.191Z,959.7
2022-09-01T16:35:00.232Z,960.1
2022-09-01T16:40:00.173Z,960.4
2022-09-01T16:45:02.668Z,960.1
2022-09-01T16:50:00.176Z,961.2
2022-09-01T16:55:00.184Z,961.4
2022-09-01T17:00:03.191Z,961.4
2022-09-01T17:05:00.189Z,962.1
2022-09-01T17:10:00.181Z,962.7
2022-09-01T17:15:00.166Z,964
2022-09-01T17:20:00.174Z,963.2
2022-09-01T17:25:00.261Z,964.5
2022-09-01T17:30:00.193Z,964.9
2022-09-01T17:35:00.186Z,965.4
2022-09-01T17:40:00.181Z,966
2022-09-01T17:45:00.162Z,966.2
2022-09-01T17:50:00.180Z,966.7
2022-09-01T17:55:00.195Z,968
2022-09-01T18:00:00.173Z,968.2
2022-09-01T18:05:00.267Z,968.6
2022-09-01T18:10:00.165Z,969.3
2022-09-01T18:15:00.164Z,969.7
2022-09-01T18:20:00.178Z,970.6
2022-09-01T18:25:00.174Z,971.2
2022-09-01T18:30:00.214Z,972.3
2022-09-01T18:35:00.197Z,972.7
2022-09-01T18:40:00.187Z,973.6
2022-09-01T18:45:00.174Z,973.8
2022-09-01T18:50:00.171Z,974
2022-09-01T18:55:00.177Z,974.5
2022-09-01T19:00:00.201Z,974.5
2022-09-01T19:05:00.180Z,974.9
2022-09-01T19:10:00.189Z,975.1
2022-09-01T19:15:00.233Z,975.1
2022-09-01T19:20:00.203Z,975.4
2022-09-01T19:25:00.263Z,975.4
2022-09-01T19:30:00.176Z,975.4
2022-09-01T19:35:00.200Z,975.8
2022-09-01T19:40:00.269Z,975.8
2022-09-01T19:45:00.219Z,976
2022-09-01T19:50:00.187Z,976.2
2022-09-01T19:55:00.171Z,976.2
2022-09-01T20:00:00.167Z,976.2
2022-09-01T20:05:00.184Z,976.2
2022-09-01T20:10:00.166Z,976.4
2022-09-01T20:15:00.166Z,976.2
2022-09-01T20:20:00.179Z,976.2
2022-09-01T20:25:00.165Z,976.7
2022-09-01T20:30:00.192Z,976.7
2022-09-01T20:35:00.165Z,977.1
2022-09-01T20:40:00.199Z,976.9
2022-09-01T20:45:00.172Z,976.9
2022-09-01T20:50:00.204Z,976.7
2022-09-01T20:55:00.211Z,976.7
2022-09-01T21:00:00.180Z,976.9
2022-09-01T21:05:00.187Z,977.1
2022-09-01T21:10:00.172Z,976.9
2022-09-01T21:15:00.190Z,977.1
2022-09-01T21:20:00.170Z,977.1
2022-09-01T21:25:00.182Z,976.9
2022-09-01T21:30:00.189Z,977.1
2022-09-01T21:35:00.245Z,977.3
2022-09-01T21:40:00.224Z,977.5
2022-09-01T21:45:00.184Z,977.5
2022-09-01T21:50:00.197Z,977.5
2022-09-01T21:55:00.172Z,977.5
2022-09-01T22:00:00.186Z,977.3
2022-09-01T22:05:00.169Z,977.3
2022-09-01T22:10:00.193Z,977.5
2022-09-01T22:15:00.337Z,977.1
2022-09-01T22:20:00.196Z,977.1
2022-09-01T22:25:00.183Z,977.5
2022-09-01T22:30:00.169Z,977.7
2022-09-01T22:35:00.190Z,977.7
2022-09-01T22:40:00.177Z,977.5
2022-09-01T22:45:00.183Z,977.5
2022-09-01T22:50:00.179Z,977.7
2022-09-01T22:55:00.166Z,977.5
2022-09-01T23:00:00.163Z,977.5
2022-09-01T23:05:00.170Z,977.5
2022-09-01T23:10:00.171Z,977.5
2022-09-01T23:15:00.194Z,977.5
2022-09-01T23:20:00.184Z,977.5
2022-09-01T23:25:00.166Z,977.5
2022-09-01T23:30:00.186Z,977.5
2022-09-01T23:35:00.166Z,977.5
2022-09-01T23:40:00.198Z,977.5
2022-09-01T23:45:00.157Z,977.5
2022-09-01T23:50:00.188Z,977.5
2022-09-01T23:55:00.166Z,977.5
